createdAt,value
2017-08-01T00:01:40.824Z,8.03
2017-08-01T00:04:08.331Z,5.10
2017-08-01T00:06:35.849Z,4.37
2017-08-01T00:09:03.348Z,5.00
2017-08-01T00:11:30.833Z,4.60
2017-08-01T00:13:58.373Z,4.73
2017-08-01T00:16:25.851Z,9.70
2017-08-01T00:18:53.370Z,6.00
2017-08-01T00:21:21.602Z,8.00
2017-08-01T00:23:49.079Z,6.77
2017-08-01T00:26:16.579Z,5.57
2017-08-01T00:28:44.052Z,5.80
2017-08-01T00:31:11.537Z,6.03
2017-08-01T00:33:39.033Z,5.53
2017-08-01T00:36:07.359Z,8.17
2017-08-01T00:38:34.853Z,7.30
2017-08-01T00:41:02.329Z,6.43
2017-08-01T00:43:30.584Z,7.07
2017-08-01T00:45:58.212Z,7.97
2017-08-01T00:48:25.677Z,10.30
2017-08-01T00:50:53.193Z,8.47
2017-08-01T00:53:21.432Z,6.50
2017-08-01T00:55:48.908Z,6.83
2017-08-01T00:58:16.410Z,6.10
2017-08-01T01:00:43.885Z,5.37
2017-08-01T01:03:11.384Z,7.03
2017-08-01T01:05:38.884Z,7.07
2017-08-01T01:08:06.360Z,7.17
2017-08-01T01:10:33.838Z,6.53
2017-08-01T01:13:01.318Z,5.80
2017-08-01T01:15:29.568Z,4.70
2017-08-01T01:17:57.064Z,6.70
2017-08-01T01:20:25.319Z,5.23
2017-08-01T01:22:52.803Z,5.93
2017-08-01T01:25:21.037Z,5.23
2017-08-01T01:27:48.558Z,6.73
2017-08-01T01:30:16.038Z,7.27
2017-08-01T01:32:43.548Z,6.83
2017-08-01T01:35:11.820Z,9.23
2017-08-01T01:37:40.064Z,10.20
2017-08-01T01:40:07.588Z,6.43
2017-08-01T01:42:35.104Z,5.20
2017-08-01T01:45:02.608Z,6.83
2017-08-01T01:47:30.084Z,7.57
2017-08-01T01:49:57.568Z,7.47
2017-08-01T01:52:25.081Z,5.40
2017-08-01T01:54:52.554Z,6.07
2017-08-01T01:57:20.049Z,8.20
2017-08-01T01:59:47.563Z,5.97
2017-08-01T02:02:15.034Z,7.13
2017-08-01T02:04:42.506Z,11.03
2017-08-01T02:07:10.015Z,10.50
2017-08-01T02:09:37.532Z,6.10
2017-08-01T02:12:05.030Z,4.10
2017-08-01T02:14:33.301Z,9.00
2017-08-01T02:17:01.541Z,6.43
2017-08-01T02:19:29.036Z,5.00
2017-08-01T02:21:57.281Z,4.67
2017-08-01T02:24:24.774Z,7.13
2017-08-01T02:26:53.019Z,4.43
2017-08-01T02:29:20.497Z,6.30
2017-08-01T02:31:48.749Z,12.70
2017-08-01T02:34:16.230Z,8.27
2017-08-01T02:36:43.703Z,9.17
2017-08-01T02:39:11.219Z,14.20
2017-08-01T02:41:38.701Z,18.87
2017-08-01T02:44:06.951Z,41.20
2017-08-01T02:46:35.369Z,33.67
2017-08-01T02:49:02.846Z,39.73
2017-08-01T02:51:30.738Z,40.53
2017-08-01T02:53:58.244Z,40.80
2017-08-01T02:56:25.748Z,37.73
2017-08-01T02:58:53.241Z,37.93
2017-08-01T03:01:20.730Z,35.27
2017-08-01T03:03:48.224Z,33.47
2017-08-01T03:06:15.719Z,33.53
2017-08-01T03:08:43.212Z,32.60
2017-08-01T03:11:10.714Z,31.47
2017-08-01T03:13:38.960Z,27.83
2017-08-01T03:16:06.461Z,25.60
2017-08-01T03:18:34.705Z,23.60
2017-08-01T03:21:02.187Z,23.40
2017-08-01T03:23:30.460Z,24.53
2017-08-01T03:25:58.708Z,23.40
2017-08-01T03:28:26.193Z,21.77
2017-08-01T03:30:54.459Z,22.13
2017-08-01T03:33:21.976Z,19.90
2017-08-01T03:35:49.471Z,22.70
2017-08-01T03:38:17.732Z,21.90
2017-08-01T03:40:45.224Z,17.50
2017-08-01T03:43:13.496Z,24.80
2017-08-01T03:45:40.977Z,23.23
2017-08-01T03:48:08.476Z,17.60
2017-08-01T03:50:35.953Z,16.73
2017-08-01T03:53:03.436Z,23.97
2017-08-01T03:55:31.709Z,20.30
2017-08-01T03:57:59.184Z,17.80
2017-08-01T04:00:27.419Z,20.83
2017-08-01T04:02:54.928Z,17.23
2017-08-01T04:05:22.439Z,21.00
2017-08-01T04:07:49.965Z,18.07
2017-08-01T04:10:17.479Z,20.67
2017-08-01T04:12:45.755Z,19.80
2017-08-01T04:15:13.237Z,18.50
2017-08-01T04:17:40.715Z,21.23
2017-08-01T04:20:08.213Z,17.63
2017-08-01T04:22:35.690Z,18.90
2017-08-01T04:25:03.952Z,17.53
2017-08-01T04:27:31.440Z,15.40
2017-08-01T04:29:58.939Z,17.73
2017-08-01T04:32:26.434Z,16.87
2017-08-01T04:34:53.921Z,21.90
2017-08-01T04:37:21.420Z,19.43
2017-08-01T04:39:50.136Z,18.07
2017-08-01T04:42:18.629Z,14.40
2017-08-01T04:44:58.726Z,13.03
2017-08-01T04:47:26.389Z,13.33
2017-08-01T04:49:54.112Z,14.00
2017-08-01T04:52:22.392Z,14.83
2017-08-01T04:54:50.652Z,11.40
2017-08-01T04:57:18.925Z,12.27
2017-08-01T04:59:46.478Z,11.70
2017-08-01T05:02:14.949Z,11.77
2017-08-01T05:04:43.193Z,10.67
2017-08-01T05:07:11.893Z,9.13
2017-08-01T05:09:40.202Z,9.03
2017-08-01T05:12:07.668Z,7.93
2017-08-01T05:14:35.935Z,7.40
2017-08-01T05:17:03.443Z,7.27
2017-08-01T05:19:31.712Z,9.53
2017-08-01T05:21:59.961Z,6.23
2017-08-01T05:24:27.436Z,5.83
2017-08-01T05:26:55.056Z,7.77
2017-08-01T05:29:22.532Z,6.97
2017-08-01T05:31:49.997Z,7.13
2017-08-01T05:34:17.491Z,6.10
2017-08-01T05:36:45.732Z,6.17
2017-08-01T05:39:13.209Z,5.00
2017-08-01T05:41:40.707Z,9.13
2017-08-01T05:44:08.196Z,6.10
2017-08-01T05:46:35.678Z,7.67
2017-08-01T05:49:03.156Z,12.23
2017-08-01T05:51:31.424Z,8.27
2017-08-01T05:53:59.698Z,9.63
2017-08-01T05:56:27.169Z,8.27
2017-08-01T05:58:55.459Z,8.13
2017-08-01T06:01:22.940Z,11.33
2017-08-01T06:03:50.444Z,8.37
2017-08-01T06:06:17.931Z,7.00
2017-08-01T06:08:45.432Z,7.53
2017-08-01T06:11:12.923Z,9.37
2017-08-01T06:13:40.451Z,8.13
2017-08-01T06:16:07.943Z,6.40
2017-08-01T06:18:36.184Z,7.33
2017-08-01T06:21:03.692Z,10.10
2017-08-01T06:23:31.932Z,11.73
2017-08-01T06:25:59.427Z,7.37
2017-08-01T06:28:27.676Z,6.13
2017-08-01T06:30:55.201Z,9.17
2017-08-01T06:33:22.680Z,6.07
2017-08-01T06:35:50.163Z,6.40
2017-08-01T06:38:17.671Z,6.13
2017-08-01T06:40:45.178Z,6.57
2017-08-01T06:43:12.653Z,7.97
2017-08-01T06:45:40.913Z,5.67
2017-08-01T06:48:08.380Z,6.30
2017-08-01T06:50:36.660Z,5.93
2017-08-01T06:53:04.976Z,6.87
2017-08-01T06:55:32.469Z,5.93
2017-08-01T06:57:59.992Z,7.03
2017-08-01T07:00:27.481Z,9.97
2017-08-01T07:02:54.968Z,8.57
2017-08-01T07:05:23.244Z,5.93
2017-08-01T07:07:50.715Z,8.27
2017-08-01T07:10:18.980Z,6.40
2017-08-01T07:12:47.229Z,13.30
2017-08-01T07:15:14.724Z,6.50
2017-08-01T07:17:42.964Z,6.33
2017-08-01T07:20:10.487Z,9.43
2017-08-01T07:22:37.964Z,4.73
2017-08-01T07:25:05.481Z,5.77
2017-08-01T07:27:32.976Z,5.83
2017-08-01T07:30:00.474Z,5.03
2017-08-01T07:32:27.953Z,4.10
2017-08-01T07:34:56.196Z,4.50
2017-08-01T07:37:23.677Z,4.23
2017-08-01T07:39:51.928Z,4.87
2017-08-01T07:42:19.409Z,7.33
2017-08-01T07:44:47.649Z,4.93
2017-08-01T07:47:15.219Z,5.83
2017-08-01T07:49:42.703Z,3.93
2017-08-01T07:52:10.967Z,3.93
2017-08-01T07:54:38.449Z,4.00
2017-08-01T07:57:06.681Z,3.40
2017-08-01T07:59:34.173Z,4.03
2017-08-01T08:02:02.422Z,4.37
2017-08-01T08:04:29.946Z,4.13
2017-08-01T08:06:57.417Z,4.73
2017-08-01T08:09:24.909Z,3.80
2017-08-01T08:11:52.406Z,5.03
2017-08-01T08:14:19.880Z,4.80
2017-08-01T08:16:47.368Z,3.00
2017-08-01T08:19:14.852Z,4.77
2017-08-01T08:21:43.137Z,6.50
2017-08-01T08:24:11.392Z,3.83
2017-08-01T08:26:38.865Z,3.40
2017-08-01T08:29:07.129Z,3.87
2017-08-01T08:31:34.593Z,3.60
2017-08-01T08:34:02.061Z,5.90
2017-08-01T08:36:30.307Z,5.00
2017-08-01T08:38:57.787Z,4.63
2017-08-01T08:41:25.279Z,2.33
2017-08-01T08:43:52.764Z,4.50
2017-08-01T08:46:20.241Z,3.67
2017-08-01T08:48:48.002Z,4.93
2017-08-01T08:51:15.520Z,3.07
2017-08-01T08:53:43.012Z,3.63
2017-08-01T08:56:10.516Z,3.77
2017-08-01T08:58:38.760Z,2.93
2017-08-01T09:01:06.257Z,4.17
2017-08-01T09:03:33.734Z,20.90
2017-08-01T09:06:01.228Z,7.27
2017-08-01T09:08:28.720Z,26.83
2017-08-01T09:10:56.973Z,5.77
2017-08-01T09:13:24.436Z,5.83
2017-08-01T09:15:51.908Z,5.43
2017-08-01T09:18:20.197Z,4.10
2017-08-01T09:20:48.432Z,4.10
2017-08-01T09:23:15.941Z,3.20
2017-08-01T09:25:43.425Z,19.63
2017-08-01T09:28:10.892Z,8.90
2017-08-01T09:30:38.392Z,4.33
2017-08-01T09:33:06.629Z,9.60
2017-08-01T09:35:34.103Z,5.33
2017-08-01T09:38:01.576Z,2.70
2017-08-01T09:40:29.068Z,2.17
2017-08-01T09:42:56.656Z,2.70
2017-08-01T09:45:24.134Z,9.53
2017-08-01T09:47:51.619Z,3.27
2017-08-01T09:50:19.939Z,4.47
2017-08-01T09:52:47.432Z,11.20
2017-08-01T09:55:14.900Z,5.20
2017-08-01T09:57:42.380Z,2.90
2017-08-01T10:00:10.616Z,2.50
2017-08-01T10:02:38.085Z,3.23
2017-08-01T10:05:05.613Z,5.50
2017-08-01T10:07:33.077Z,5.10
2017-08-01T10:10:00.569Z,2.87
2017-08-01T10:12:28.081Z,3.37
2017-08-01T10:14:55.604Z,3.47
2017-08-01T10:17:23.081Z,4.43
2017-08-01T10:19:50.553Z,3.73
2017-08-01T10:22:18.053Z,3.33
2017-08-01T10:24:46.300Z,5.07
2017-08-01T10:27:13.788Z,3.00
2017-08-01T10:29:41.257Z,3.43
2017-08-01T10:32:08.720Z,4.33
2017-08-01T10:34:36.977Z,2.60
2017-08-01T10:37:04.455Z,3.20
2017-08-01T10:39:32.712Z,4.47
2017-08-01T10:42:00.212Z,3.73
2017-08-01T10:44:27.681Z,3.97
2017-08-01T10:46:55.186Z,4.63
2017-08-01T10:49:22.649Z,3.10
2017-08-01T10:51:50.205Z,3.33
2017-08-01T10:54:17.714Z,3.77
2017-08-01T10:56:45.237Z,3.30
2017-08-01T10:59:13.488Z,5.23
2017-08-01T11:01:40.969Z,3.17
2017-08-01T11:04:08.433Z,3.37
2017-08-01T11:06:36.682Z,4.73
2017-08-01T11:09:04.172Z,6.43
2017-08-01T11:11:32.423Z,3.90
2017-08-01T11:13:59.898Z,3.77
2017-08-01T11:16:27.393Z,4.80
2017-08-01T11:18:54.901Z,4.20
2017-08-01T11:21:22.363Z,7.17
2017-08-01T11:23:49.836Z,4.27
2017-08-01T11:26:17.321Z,3.83
2017-08-01T11:28:44.794Z,3.47
2017-08-01T11:31:12.295Z,5.50
2017-08-01T11:33:39.761Z,3.60
2017-08-01T11:36:07.224Z,3.63
2017-08-01T11:38:35.490Z,3.83
2017-08-01T11:41:02.976Z,3.40
2017-08-01T11:43:30.476Z,3.53
2017-08-01T11:45:57.967Z,5.10
2017-08-01T11:48:25.442Z,4.17
2017-08-01T11:50:53.696Z,6.37
2017-08-01T11:53:21.190Z,4.23
2017-08-01T11:55:48.682Z,3.90
2017-08-01T11:58:16.537Z,4.50
2017-08-01T12:00:44.017Z,4.10
2017-08-01T12:03:11.529Z,3.67
2017-08-01T12:05:39.048Z,4.37
2017-08-01T12:08:06.544Z,4.23
2017-08-01T12:10:34.789Z,4.07
2017-08-01T12:13:02.289Z,4.17
2017-08-01T12:15:29.769Z,3.60
2017-08-01T12:17:57.240Z,4.03
2017-08-01T12:20:24.736Z,4.00
2017-08-01T12:22:52.978Z,5.20
2017-08-01T12:25:20.443Z,4.60
2017-08-01T12:27:47.935Z,4.90
2017-08-01T12:30:16.176Z,5.47
2017-08-01T12:32:43.682Z,12.10
2017-08-01T12:35:11.165Z,6.90
2017-08-01T12:37:38.630Z,3.70
2017-08-01T12:40:06.126Z,4.00
2017-08-01T12:42:33.607Z,6.27
2017-08-01T12:45:01.839Z,4.47
2017-08-01T12:47:29.316Z,5.87
2017-08-01T12:49:56.790Z,4.50
2017-08-01T12:52:25.052Z,6.73
2017-08-01T12:54:54.074Z,4.80
2017-08-01T12:57:22.320Z,9.70
2017-08-01T12:59:49.846Z,3.53
2017-08-01T13:02:17.308Z,4.77
2017-08-01T13:04:44.781Z,4.43
2017-08-01T13:07:12.292Z,3.63
2017-08-01T13:09:39.762Z,7.50
2017-08-01T13:12:07.255Z,4.67
2017-08-01T13:14:34.725Z,7.10
2017-08-01T13:17:02.216Z,6.67
2017-08-01T13:19:30.476Z,4.70
2017-08-01T13:21:58.736Z,4.80
2017-08-01T13:24:26.232Z,4.20
2017-08-01T13:26:53.727Z,5.33
2017-08-01T13:29:21.197Z,7.17
2017-08-01T13:31:48.680Z,5.80
2017-08-01T13:34:16.154Z,8.97
2017-08-01T13:36:44.409Z,4.97
2017-08-01T13:39:11.905Z,5.77
2017-08-01T13:41:39.376Z,4.60
2017-08-01T13:44:06.864Z,4.73
2017-08-01T13:46:34.329Z,5.47
2017-08-01T13:49:01.823Z,5.33
2017-08-01T13:51:29.328Z,4.10
2017-08-01T13:53:56.809Z,4.77
2017-08-01T13:56:24.272Z,4.30
2017-08-01T13:58:51.756Z,5.37
2017-08-01T14:01:19.996Z,4.20
2017-08-01T14:03:47.491Z,6.27
2017-08-01T14:06:15.755Z,4.13
2017-08-01T14:08:43.237Z,4.83
2017-08-01T14:11:10.711Z,4.17
2017-08-01T14:13:38.204Z,7.00
2017-08-01T14:16:05.667Z,4.37
2017-08-01T14:18:33.145Z,6.63
2017-08-01T14:21:00.632Z,5.00
2017-08-01T14:23:28.098Z,5.63
2017-08-01T14:25:55.641Z,5.87
2017-08-01T14:28:23.104Z,4.37
2017-08-01T14:30:50.574Z,5.93
2017-08-01T14:33:18.055Z,6.03
2017-08-01T14:35:45.524Z,5.37
2017-08-01T14:38:13.016Z,7.90
2017-08-01T14:40:41.251Z,5.80
2017-08-01T14:43:08.729Z,4.90
2017-08-01T14:45:36.229Z,5.17
2017-08-01T14:48:03.705Z,4.80
2017-08-01T14:50:31.173Z,6.67
2017-08-01T14:52:58.648Z,4.10
2017-08-01T14:55:26.117Z,6.20
2017-08-01T14:57:53.613Z,5.67
2017-08-01T15:00:21.080Z,5.10
2017-08-01T15:02:48.540Z,6.40
2017-08-01T15:05:16.032Z,5.03
2017-08-01T15:07:43.501Z,4.43
2017-08-01T15:10:10.992Z,8.80
2017-08-01T15:12:39.233Z,4.90
2017-08-01T15:15:06.735Z,4.93
2017-08-01T15:17:34.205Z,4.63
2017-08-01T15:20:01.683Z,5.53
2017-08-01T15:22:29.172Z,3.93
2017-08-01T15:24:56.653Z,4.30
2017-08-01T15:27:25.150Z,5.33
2017-08-01T15:29:53.380Z,4.43
2017-08-01T15:32:20.869Z,4.40
2017-08-01T15:34:49.148Z,3.70
2017-08-01T15:37:17.391Z,3.83
2017-08-01T15:39:45.243Z,3.70
2017-08-01T15:42:12.773Z,4.10
2017-08-01T15:44:40.357Z,4.50
2017-08-01T15:47:07.820Z,4.20
2017-08-01T15:49:35.341Z,4.07
2017-08-01T15:52:02.813Z,7.47
2017-08-01T15:54:30.349Z,5.43
2017-08-01T15:57:01.086Z,5.70
2017-08-01T15:59:29.341Z,2.93
2017-08-01T16:01:56.851Z,5.50
2017-08-01T16:04:24.337Z,4.33
2017-08-01T16:06:51.832Z,4.17
2017-08-01T16:09:20.068Z,4.27
2017-08-01T16:11:47.565Z,5.80
2017-08-01T16:14:15.819Z,5.33
2017-08-01T16:16:43.288Z,5.23
2017-08-01T16:19:10.817Z,6.40
2017-08-01T16:21:38.297Z,4.17
2017-08-01T16:24:05.820Z,4.13
2017-08-01T16:26:33.294Z,4.47
2017-08-01T16:29:00.777Z,5.37
2017-08-01T16:31:28.268Z,7.17
2017-08-01T16:33:55.760Z,4.47
2017-08-01T16:36:23.317Z,4.67
2017-08-01T16:38:50.804Z,4.40
2017-08-01T16:41:18.304Z,4.80
2017-08-01T16:43:45.780Z,6.00
2017-08-01T16:46:13.248Z,6.20
2017-08-01T16:48:40.746Z,5.23
2017-08-01T16:51:08.222Z,7.63
2017-08-01T16:53:35.748Z,8.57
2017-08-01T16:56:03.265Z,5.53
2017-08-01T16:58:30.766Z,6.10
2017-08-01T17:00:58.240Z,6.63
2017-08-01T17:03:25.737Z,14.07
2017-08-01T17:05:53.219Z,5.70
2017-08-01T17:08:21.477Z,5.23
2017-08-01T17:10:48.961Z,7.17
2017-08-01T17:13:17.231Z,5.43
2017-08-01T17:15:45.485Z,7.10
2017-08-01T17:18:12.972Z,7.13
2017-08-01T17:20:41.210Z,5.50
2017-08-01T17:23:08.697Z,6.00
2017-08-01T17:25:36.236Z,4.80
2017-08-01T17:28:03.707Z,4.90
2017-08-01T17:30:31.179Z,6.83
2017-08-01T17:32:58.675Z,5.70
2017-08-01T17:35:26.198Z,4.90
2017-08-01T17:37:53.656Z,6.77
2017-08-01T17:40:21.161Z,12.27
2017-08-01T17:42:48.630Z,6.50
2017-08-01T17:45:16.124Z,8.53
2017-08-01T17:47:43.597Z,8.80
2017-08-01T17:50:11.972Z,11.47
2017-08-01T17:52:40.572Z,6.70
2017-08-01T17:55:09.276Z,5.97
2017-08-01T17:57:36.745Z,6.07
2017-08-01T18:00:04.229Z,6.40
2017-08-01T18:02:31.697Z,6.03
2017-08-01T18:04:59.198Z,7.30
2017-08-01T18:07:26.674Z,11.57
2017-08-01T18:09:54.152Z,8.50
2017-08-01T18:12:21.696Z,10.60
2017-08-01T18:14:49.173Z,13.23
2017-08-01T18:17:16.744Z,11.90
2017-08-01T18:19:44.316Z,12.10
2017-08-01T18:22:12.643Z,8.50
2017-08-01T18:24:40.210Z,8.60
2017-08-01T18:27:07.680Z,8.93
2017-08-01T18:29:35.237Z,12.17
2017-08-01T18:32:02.712Z,12.70
2017-08-01T18:34:30.187Z,11.33
2017-08-01T18:36:57.690Z,9.53
2017-08-01T18:39:25.206Z,19.93
2017-08-01T18:41:52.744Z,15.07
2017-08-01T18:44:20.691Z,27.93
2017-08-01T18:46:48.565Z,23.80
2017-08-01T18:49:16.070Z,12.10
2017-08-01T18:51:43.571Z,10.90
2017-08-01T18:54:11.339Z,12.70
2017-08-01T18:56:39.103Z,10.93
2017-08-01T18:59:06.972Z,17.80
2017-08-01T19:01:34.849Z,11.87
2017-08-01T19:04:02.389Z,12.77
2017-08-01T19:06:29.981Z,13.67
2017-08-01T19:08:58.043Z,14.43
2017-08-01T19:11:26.625Z,13.80
2017-08-01T19:13:54.614Z,16.23
2017-08-01T19:16:22.156Z,21.90
2017-08-01T19:18:50.144Z,15.30
2017-08-01T19:21:18.115Z,18.20
2017-08-01T19:23:46.975Z,14.13
2017-08-01T19:26:14.631Z,11.10
2017-08-01T19:28:42.505Z,14.67
2017-08-01T19:31:10.371Z,16.93
2017-08-01T19:33:38.238Z,18.60
2017-08-01T19:36:05.838Z,25.30
2017-08-01T19:38:33.668Z,24.77
2017-08-01T19:41:01.191Z,33.37
2017-08-01T19:43:29.439Z,25.30
2017-08-01T19:45:56.989Z,22.73
2017-08-01T19:48:24.932Z,23.83
2017-08-01T19:50:52.900Z,23.20
2017-08-01T19:53:21.585Z,23.40
2017-08-01T19:55:49.147Z,23.70
2017-08-01T19:58:17.123Z,20.67
2017-08-01T20:00:44.710Z,22.63
2017-08-01T20:03:12.240Z,25.67
2017-08-01T20:05:39.774Z,20.50
2017-08-01T20:08:07.661Z,23.07
2017-08-01T20:10:35.631Z,21.50
2017-08-01T20:13:03.505Z,26.00
2017-08-01T20:15:31.063Z,28.93
2017-08-01T20:17:58.930Z,24.93
2017-08-01T20:20:27.508Z,30.00
2017-08-01T20:22:55.017Z,27.40
2017-08-01T20:25:22.517Z,32.13
2017-08-01T20:27:50.158Z,31.63
2017-08-01T20:30:17.673Z,31.90
2017-08-01T20:32:45.146Z,31.93
2017-08-01T20:35:12.678Z,26.20
2017-08-01T20:37:40.165Z,28.53
2017-08-01T20:40:07.709Z,34.87
2017-08-01T20:42:35.241Z,33.23
2017-08-01T20:45:02.741Z,34.43
2017-08-01T20:47:30.361Z,36.30
2017-08-01T20:49:57.856Z,29.40
2017-08-01T20:52:25.362Z,27.50
2017-08-01T20:54:52.886Z,25.50
2017-08-01T20:57:20.373Z,20.43
2017-08-01T20:59:47.852Z,18.90
2017-08-01T21:02:15.370Z,22.97
2017-08-01T21:04:43.625Z,17.43
2017-08-01T21:07:11.127Z,16.27
2017-08-01T21:09:38.639Z,17.30
2017-08-01T21:12:06.143Z,20.00
2017-08-01T21:14:33.637Z,15.37
2017-08-01T21:17:01.149Z,16.43
2017-08-01T21:19:29.433Z,15.50
2017-08-01T21:21:56.914Z,15.63
2017-08-01T21:24:24.412Z,18.60
2017-08-01T21:26:51.886Z,16.50
2017-08-01T21:29:20.136Z,19.70
2017-08-01T21:31:47.706Z,17.50
2017-08-01T21:34:15.209Z,17.53
2017-08-01T21:36:42.697Z,19.53
2017-08-01T21:39:10.192Z,15.50
2017-08-01T21:41:37.691Z,12.93
2017-08-01T21:44:05.190Z,13.13
2017-08-01T21:46:32.681Z,11.80
2017-08-01T21:49:00.977Z,13.13
2017-08-01T21:51:28.465Z,17.90
2017-08-01T21:53:56.042Z,11.83
2017-08-01T21:56:23.542Z,12.80
2017-08-01T21:58:51.813Z,8.90
2017-08-01T22:01:20.072Z,11.37
2017-08-01T22:03:47.557Z,13.33
2017-08-01T22:06:15.064Z,18.27
2017-08-01T22:08:42.540Z,14.37
2017-08-01T22:11:10.024Z,13.67
2017-08-01T22:13:38.294Z,16.00
2017-08-01T22:16:06.524Z,17.03
2017-08-01T22:18:34.035Z,17.23
2017-08-01T22:21:02.312Z,13.30
2017-08-01T22:23:30.561Z,16.43
2017-08-01T22:25:58.058Z,17.00
2017-08-01T22:28:25.644Z,18.87
2017-08-01T22:30:53.133Z,15.07
2017-08-01T22:33:20.668Z,16.23
2017-08-01T22:35:48.172Z,17.43
2017-08-01T22:38:16.439Z,19.70
2017-08-01T22:40:43.916Z,15.77
2017-08-01T22:43:12.194Z,15.57
2017-08-01T22:45:40.444Z,14.00
2017-08-01T22:48:07.929Z,14.90
2017-08-01T22:50:35.436Z,16.93
2017-08-01T22:53:02.924Z,17.50
2017-08-01T22:55:30.411Z,13.20
2017-08-01T22:57:57.927Z,14.27
2017-08-01T23:00:25.414Z,14.87
2017-08-01T23:02:52.917Z,13.63
2017-08-01T23:05:20.398Z,11.87
2017-08-01T23:07:47.881Z,12.43
2017-08-01T23:10:15.421Z,14.93
2017-08-01T23:12:43.688Z,15.10
2017-08-01T23:15:11.188Z,14.70
2017-08-01T23:17:38.693Z,13.93
2017-08-01T23:20:06.217Z,13.63
2017-08-01T23:22:33.711Z,11.87
2017-08-01T23:25:01.195Z,9.30
2017-08-01T23:27:28.671Z,9.67
2017-08-01T23:29:56.177Z,9.13
2017-08-01T23:32:23.676Z,12.47
2017-08-01T23:34:51.152Z,16.70
2017-08-01T23:37:18.652Z,12.93
2017-08-01T23:39:46.128Z,16.60
2017-08-01T23:42:13.640Z,15.63
2017-08-01T23:44:41.873Z,13.63
2017-08-01T23:47:09.356Z,18.53
2017-08-01T23:49:37.625Z,13.40
2017-08-01T23:52:05.128Z,14.20
2017-08-01T23:54:32.604Z,21.03
2017-08-01T23:57:00.109Z,16.93
2017-08-01T23:59:28.356Z,13.90
